createdAt,value
2023-05-16T00:02:59.230Z,22.40
2023-05-16T00:06:01.728Z,21.50
2023-05-16T00:09:06.463Z,21.90
2023-05-16T00:12:10.621Z,22.00
2023-05-16T00:15:13.475Z,22.00
2023-05-16T00:18:16.176Z,21.80
2023-05-16T00:21:17.541Z,22.00
2023-05-16T00:24:22.552Z,21.90
2023-05-16T00:27:23.867Z,22.00
2023-05-16T00:30:25.414Z,21.90
2023-05-16T00:33:27.595Z,21.90
2023-05-16T00:36:30.106Z,22.00
2023-05-16T00:39:31.469Z,22.20
2023-05-16T00:42:32.852Z,21.90
2023-05-16T00:45:34.201Z,22.30
2023-05-16T00:48:36.652Z,21.80
2023-05-16T00:51:39.486Z,22.30
2023-05-16T00:54:41.017Z,21.80
2023-05-16T00:57:42.358Z,22.00
2023-05-16T01:00:48.447Z,21.60
2023-05-16T01:03:50.891Z,21.80
2023-05-16T01:06:52.526Z,21.90
2023-05-16T01:09:53.834Z,22.00
2023-05-16T01:12:59.581Z,21.90
2023-05-16T01:16:04.713Z,21.90
2023-05-16T01:19:13.267Z,21.80
2023-05-16T01:22:16.339Z,21.90
2023-05-16T01:25:27.807Z,21.70
2023-05-16T01:28:29.952Z,21.60
2023-05-16T01:31:31.448Z,21.80
2023-05-16T01:34:32.928Z,22.10
2023-05-16T01:37:38.917Z,21.70
2023-05-16T01:40:45.495Z,21.90
2023-05-16T01:43:50.775Z,22.00
2023-05-16T01:46:53.949Z,21.90
2023-05-16T01:49:57.751Z,21.80
2023-05-16T01:53:03.298Z,21.90
2023-05-16T01:56:08.694Z,21.50
2023-05-16T01:59:11.726Z,21.40
2023-05-16T02:02:12.970Z,21.80
2023-05-16T02:05:14.540Z,21.80
2023-05-16T02:08:17.949Z,21.60
2023-05-16T02:11:19.216Z,21.80
2023-05-16T02:14:21.077Z,21.70
2023-05-16T02:17:23.448Z,21.90
2023-05-16T02:20:24.811Z,21.60
2023-05-16T02:23:26.065Z,21.90
2023-05-16T02:26:28.274Z,21.10
2023-05-16T02:29:30.168Z,21.90
2023-05-16T02:32:31.634Z,21.20
2023-05-16T02:35:33.061Z,21.70
2023-05-16T02:38:34.758Z,21.30
2023-05-16T02:41:36.517Z,21.90
2023-05-16T02:44:38.448Z,21.80
2023-05-16T02:47:39.903Z,21.60
2023-05-16T02:50:41.840Z,21.40
2023-05-16T02:53:43.212Z,21.60
2023-05-16T02:56:44.685Z,21.30
2023-05-16T02:59:47.097Z,21.60
2023-05-16T03:02:49.742Z,21.70
2023-05-16T03:05:51.108Z,21.60
2023-05-16T03:08:52.488Z,21.60
2023-05-16T03:11:53.741Z,21.50
2023-05-16T03:14:55.590Z,21.40
2023-05-16T03:17:59.980Z,21.50
2023-05-16T03:21:02.310Z,21.60
2023-05-16T03:24:03.770Z,21.70
2023-05-16T03:27:05.682Z,21.60
2023-05-16T03:30:08.559Z,21.80
2023-05-16T03:33:10.242Z,21.60
2023-05-16T03:36:11.580Z,21.60
2023-05-16T03:39:12.916Z,21.50
2023-05-16T03:42:14.797Z,21.70
2023-05-16T03:45:16.678Z,21.70
2023-05-16T03:48:18.129Z,21.20
2023-05-16T03:51:19.400Z,21.50
2023-05-16T03:54:21.316Z,21.70
2023-05-16T03:57:22.747Z,21.60
2023-05-16T04:00:24.869Z,21.80
2023-05-16T04:03:27.708Z,21.50
2023-05-16T04:06:28.974Z,21.60
2023-05-16T04:09:31.987Z,21.40
2023-05-16T04:12:33.236Z,21.60
2023-05-16T04:15:35.236Z,21.40
2023-05-16T04:18:39.251Z,21.80
2023-05-16T04:21:40.520Z,21.50
2023-05-16T04:24:42.506Z,21.40
2023-05-16T04:27:45.074Z,21.30
2023-05-16T04:30:47.850Z,21.70
2023-05-16T04:33:52.047Z,21.40
2023-05-16T04:36:53.305Z,21.70
2023-05-16T04:39:58.236Z,21.40
2023-05-16T04:42:59.482Z,21.70
2023-05-16T04:46:01.556Z,21.40
2023-05-16T04:49:02.820Z,21.40
2023-05-16T04:52:04.396Z,21.40
2023-05-16T04:55:06.087Z,21.70
2023-05-16T04:58:07.800Z,21.30
2023-05-16T05:01:09.724Z,21.10
2023-05-16T05:04:11.422Z,21.10
2023-05-16T05:07:13.644Z,21.30
2023-05-16T05:10:14.965Z,21.50
2023-05-16T05:13:16.538Z,21.40
2023-05-16T05:16:18.469Z,21.20
2023-05-16T05:19:22.203Z,21.60
2023-05-16T05:22:23.591Z,20.80
2023-05-16T05:25:26.079Z,21.60
2023-05-16T05:28:28.037Z,21.30
2023-05-16T05:31:30.263Z,21.20
2023-05-16T05:34:34.040Z,21.30
2023-05-16T05:37:35.395Z,21.10
2023-05-16T05:40:36.630Z,20.80
2023-05-16T05:43:38.068Z,21.20
2023-05-16T05:46:40.103Z,21.00
2023-05-16T05:49:41.469Z,21.30
2023-05-16T05:52:42.960Z,20.60
2023-05-16T05:55:44.323Z,21.00
2023-05-16T05:58:45.877Z,21.00
2023-05-16T06:01:51.862Z,21.40
2023-05-16T06:04:53.403Z,21.10
2023-05-16T06:07:54.838Z,21.20
2023-05-16T06:10:56.116Z,21.00
2023-05-16T06:13:58.019Z,21.30
2023-05-16T06:16:59.909Z,20.40
2023-05-16T06:20:03.281Z,21.20
2023-05-16T06:23:06.524Z,21.10
2023-05-16T06:26:08.197Z,21.60
2023-05-16T06:29:09.623Z,21.10
2023-05-16T06:32:13.317Z,21.30
2023-05-16T06:35:15.101Z,21.10
2023-05-16T06:38:19.294Z,21.40
2023-05-16T06:41:22.174Z,21.10
2023-05-16T06:44:26.035Z,21.50
2023-05-16T06:47:29.456Z,21.40
2023-05-16T06:50:30.807Z,21.10
2023-05-16T06:53:32.094Z,21.30
2023-05-16T06:56:33.456Z,21.50
2023-05-16T06:59:35.191Z,21.40
2023-05-16T07:02:37.767Z,21.50
2023-05-16T07:05:39.177Z,21.40
2023-05-16T07:08:40.423Z,21.50
2023-05-16T07:11:41.733Z,22.30
2023-05-16T07:14:43.062Z,21.40
2023-05-16T07:17:45.116Z,21.50
2023-05-16T07:23:15.900Z,21.40
2023-05-16T07:26:17.379Z,20.80
2023-05-16T07:29:21.676Z,21.10
2023-05-16T07:35:38.604Z,21.40
2023-05-16T07:38:40.445Z,21.70
2023-05-16T07:41:42.194Z,21.60
2023-05-16T07:44:44.435Z,21.60
2023-05-16T07:47:46.172Z,21.60
2023-05-16T07:50:48.838Z,21.60
2023-05-16T07:53:53.248Z,20.90
2023-05-16T07:56:54.962Z,21.80
2023-05-16T07:59:56.383Z,21.80
2023-05-16T08:02:57.996Z,21.50
2023-05-16T08:06:05.869Z,21.70
2023-05-16T08:09:09.042Z,21.90
2023-05-16T08:12:10.377Z,21.40
2023-05-16T08:15:11.876Z,22.10
2023-05-16T08:18:14.123Z,21.30
2023-05-16T08:21:16.298Z,21.40
2023-05-16T08:24:18.398Z,21.90
2023-05-16T08:27:20.020Z,21.80
2023-05-16T08:30:21.433Z,22.00
2023-05-16T08:33:22.768Z,21.60
2023-05-16T08:36:25.434Z,22.20
2023-05-16T08:39:30.014Z,22.00
2023-05-16T08:42:32.894Z,21.70
2023-05-16T08:45:35.028Z,22.00
2023-05-16T08:48:38.148Z,21.90
2023-05-16T08:51:40.611Z,22.00
2023-05-16T08:54:42.644Z,21.90
2023-05-16T08:57:45.559Z,21.60
2023-05-16T09:00:47.492Z,22.00
2023-05-16T09:03:49.759Z,22.10
2023-05-16T09:06:52.058Z,22.10
2023-05-16T09:09:53.867Z,23.30
2023-05-16T09:12:55.306Z,21.80
2023-05-16T09:16:10.489Z,22.20
2023-05-16T09:19:13.751Z,21.60
2023-05-16T09:22:15.868Z,21.90
2023-05-16T09:25:28.506Z,22.10
2023-05-16T09:28:32.147Z,21.70
2023-05-16T09:31:37.444Z,22.20
2023-05-16T09:34:42.579Z,22.10
2023-05-16T09:37:45.988Z,22.00
2023-05-16T09:40:47.633Z,22.20
2023-05-16T09:43:51.104Z,22.10
2023-05-16T09:46:54.008Z,22.00
2023-05-16T09:49:56.561Z,22.20
2023-05-16T09:52:59.171Z,22.20
2023-05-16T09:56:02.606Z,21.90
2023-05-16T09:59:10.398Z,22.00
2023-05-16T10:02:18.325Z,22.20
2023-05-16T10:05:20.310Z,22.30
2023-05-16T10:08:24.032Z,22.30
2023-05-16T10:11:25.699Z,22.40
2023-05-16T10:14:27.198Z,22.40
2023-05-16T10:17:31.365Z,21.80
2023-05-16T10:20:32.852Z,22.30
2023-05-16T10:23:35.357Z,22.50
2023-05-16T10:26:39.986Z,22.40
2023-05-16T10:29:53.468Z,22.30
2023-05-16T10:32:57.217Z,22.50
2023-05-16T10:35:58.909Z,22.50
2023-05-16T10:39:04.629Z,22.40
2023-05-16T10:42:06.497Z,22.50
2023-05-16T10:45:17.383Z,22.30
2023-05-16T10:48:28.657Z,22.40
2023-05-16T10:51:35.793Z,22.20
2023-05-16T10:54:39.655Z,22.20
2023-05-16T10:57:44.376Z,22.50
2023-05-16T11:00:47.626Z,22.40
2023-05-16T11:04:01.960Z,22.10
2023-05-16T11:07:04.219Z,22.00
2023-05-16T11:10:08.681Z,22.40
2023-05-16T11:13:10.373Z,22.40
2023-05-16T11:16:26.878Z,22.40
2023-05-16T11:19:31.153Z,22.50
2023-05-16T11:22:33.465Z,22.50
2023-05-16T11:25:41.491Z,22.20
2023-05-16T11:28:43.229Z,22.50
2023-05-16T11:31:47.686Z,22.60
2023-05-16T11:34:49.764Z,22.50
2023-05-16T11:37:51.551Z,22.50
2023-05-16T11:40:53.705Z,22.60
2023-05-16T11:43:58.100Z,22.60
2023-05-16T11:47:00.765Z,22.60
2023-05-16T11:50:04.029Z,22.70
2023-05-16T11:53:07.760Z,22.70
2023-05-16T11:56:10.926Z,22.70
2023-05-16T11:59:12.407Z,22.80
2023-05-16T12:02:13.836Z,22.80
2023-05-16T12:05:16.321Z,22.50
2023-05-16T12:08:19.571Z,22.90
2023-05-16T12:11:23.803Z,22.70
2023-05-16T12:14:25.701Z,22.80
2023-05-16T12:17:27.652Z,22.90
2023-05-16T12:20:29.298Z,23.00
2023-05-16T12:23:33.036Z,23.00
2023-05-16T12:26:35.053Z,22.90
2023-05-16T12:29:36.586Z,23.00
2023-05-16T12:32:38.435Z,22.70
2023-05-16T12:35:41.683Z,23.00
2023-05-16T12:38:49.754Z,22.90
2023-05-16T12:41:52.990Z,22.90
2023-05-16T12:44:55.896Z,23.00
2023-05-16T12:47:57.389Z,22.80
2023-05-16T12:51:10.766Z,22.80
2023-05-16T12:54:13.056Z,22.80
2023-05-16T12:57:15.171Z,23.20
2023-05-16T13:00:18.664Z,22.90
2023-05-16T13:03:20.764Z,23.10
2023-05-16T13:06:22.286Z,22.70
2023-05-16T13:09:23.688Z,22.60
2023-05-16T13:12:26.620Z,23.00
2023-05-16T13:15:28.407Z,23.10
2023-05-16T13:18:30.655Z,23.20
2023-05-16T13:21:32.077Z,24.00
2023-05-16T13:24:33.528Z,23.20
2023-05-16T13:27:36.979Z,23.20
2023-05-16T13:30:38.471Z,23.70
2023-05-16T13:33:39.811Z,23.00
2023-05-16T13:36:52.981Z,23.00
2023-05-16T13:39:55.746Z,23.20
2023-05-16T13:43:00.317Z,23.60
2023-05-16T13:46:01.790Z,23.50
2023-05-16T13:49:06.274Z,23.50
2023-05-16T13:52:08.361Z,23.50
2023-05-16T13:55:10.546Z,23.50
2023-05-16T13:58:12.552Z,23.50
2023-05-16T14:01:13.990Z,23.60
2023-05-16T14:04:18.462Z,23.50
2023-05-16T14:07:19.953Z,23.50
2023-05-16T14:10:23.069Z,23.60
2023-05-16T14:13:27.450Z,23.70
2023-05-16T14:16:30.302Z,23.60
2023-05-16T14:19:32.089Z,23.50
2023-05-16T14:22:33.662Z,23.60
2023-05-16T14:25:35.415Z,23.50
2023-05-16T14:28:37.658Z,23.70
2023-05-16T14:31:39.732Z,23.40
2023-05-16T14:34:41.150Z,23.70
2023-05-16T14:37:42.574Z,23.40
2023-05-16T14:40:43.974Z,23.80
2023-05-16T14:43:46.303Z,23.30
2023-05-16T14:46:47.763Z,23.70
2023-05-16T14:49:50.832Z,23.70
2023-05-16T14:52:52.540Z,23.60
2023-05-16T14:55:53.983Z,23.70
2023-05-16T14:58:56.402Z,23.70
2023-05-16T15:01:58.566Z,23.70
2023-05-16T15:05:00.372Z,23.70
2023-05-16T15:08:01.923Z,23.40
2023-05-16T15:11:05.348Z,23.70
2023-05-16T15:14:07.540Z,23.40
2023-05-16T15:17:09.418Z,23.70
2023-05-16T15:20:12.961Z,23.90
2023-05-16T15:23:14.547Z,23.90
2023-05-16T15:26:17.404Z,23.90
2023-05-16T15:29:19.984Z,23.90
2023-05-16T15:32:22.598Z,23.80
2023-05-16T15:35:24.036Z,23.90
2023-05-16T15:38:25.613Z,23.90
2023-05-16T15:44:34.323Z,23.70
2023-05-16T15:47:36.082Z,24.40
2023-05-16T15:50:37.644Z,23.90
2023-05-16T15:53:39.318Z,23.20
2023-05-16T15:56:40.736Z,24.00
2023-05-16T16:02:47.338Z,23.90
2023-05-16T16:05:50.547Z,23.80
2023-05-16T16:08:54.354Z,24.10
2023-05-16T16:11:55.973Z,24.00
2023-05-16T16:14:58.083Z,24.00
2023-05-16T16:18:00.255Z,23.90
2023-05-16T16:21:01.805Z,23.50
2023-05-16T16:24:04.019Z,23.90
2023-05-16T16:27:08.108Z,24.10
2023-05-16T16:30:10.939Z,24.20
2023-05-16T16:33:12.456Z,24.30
2023-05-16T16:36:14.178Z,24.40
2023-05-16T16:39:16.222Z,24.10
2023-05-16T16:42:18.552Z,24.30
2023-05-16T16:45:21.992Z,24.20
2023-05-16T16:48:27.257Z,24.30
2023-05-16T16:51:29.423Z,24.00
2023-05-16T16:54:33.696Z,23.40
2023-05-16T16:57:35.162Z,24.30
2023-05-16T17:00:37.203Z,24.30
2023-05-16T17:03:38.838Z,24.30
2023-05-16T17:06:40.385Z,24.30
2023-05-16T17:09:42.276Z,24.20
2023-05-16T17:12:48.332Z,24.40
2023-05-16T17:15:51.438Z,24.30
2023-05-16T17:18:56.039Z,24.50
2023-05-16T17:21:57.459Z,24.40
2023-05-16T17:25:03.539Z,24.30
2023-05-16T17:28:05.100Z,24.50
2023-05-16T17:31:07.197Z,24.50
2023-05-16T17:34:08.611Z,24.50
2023-05-16T17:37:10.209Z,24.20
2023-05-16T17:40:15.888Z,24.50
2023-05-16T17:43:17.658Z,24.60
2023-05-16T17:46:20.194Z,24.50
2023-05-16T17:49:21.936Z,24.60
2023-05-16T17:52:23.417Z,24.50
2023-05-16T17:55:24.792Z,24.50
2023-05-16T17:58:27.513Z,25.70
2023-05-16T18:01:29.595Z,24.50
2023-05-16T18:04:30.991Z,24.50
2023-05-16T18:07:33.412Z,24.60
2023-05-16T18:10:50.273Z,24.60
2023-05-16T18:13:53.238Z,24.60
2023-05-16T18:16:55.325Z,24.60
2023-05-16T18:19:57.734Z,24.30
2023-05-16T18:22:59.356Z,23.20
2023-05-16T18:26:00.760Z,24.60
2023-05-16T18:29:02.841Z,24.30
2023-05-16T18:32:06.842Z,24.50
2023-05-16T18:35:08.758Z,24.70
2023-05-16T18:38:20.280Z,24.30
2023-05-16T18:41:26.692Z,24.60
2023-05-16T18:44:28.197Z,24.60
2023-05-16T18:47:31.051Z,24.00
2023-05-16T18:50:32.568Z,24.50
2023-05-16T18:53:35.355Z,24.50
2023-05-16T18:56:40.978Z,24.40
2023-05-16T18:59:44.762Z,24.40
2023-05-16T19:02:48.021Z,24.40
2023-05-16T19:05:52.123Z,24.50
2023-05-16T19:08:53.730Z,24.50
2023-05-16T19:11:58.541Z,24.10
2023-05-16T19:15:00.605Z,24.00
2023-05-16T19:18:03.988Z,24.40
2023-05-16T19:21:06.829Z,24.30
2023-05-16T19:24:08.803Z,23.90
2023-05-16T19:27:10.632Z,24.20
2023-05-16T19:30:14.143Z,24.20
2023-05-16T19:33:16.223Z,24.30
2023-05-16T19:36:17.781Z,24.20
2023-05-16T19:39:19.245Z,24.30
2023-05-16T19:42:20.626Z,24.20
2023-05-16T19:45:23.626Z,24.20
2023-05-16T19:48:26.093Z,24.20
2023-05-16T19:51:40.756Z,24.30
2023-05-16T19:54:43.125Z,24.10
2023-05-16T19:57:44.668Z,24.20
2023-05-16T20:00:46.440Z,24.00
2023-05-16T20:03:48.625Z,23.90
2023-05-16T20:06:50.996Z,24.10
2023-05-16T20:09:52.560Z,24.10
2023-05-16T20:12:53.943Z,24.20
2023-05-16T20:15:55.327Z,24.10
2023-05-16T20:18:57.589Z,23.90
2023-05-16T20:22:01.729Z,23.60
2023-05-16T20:25:03.974Z,24.00
2023-05-16T20:28:08.348Z,24.00
2023-05-16T20:31:12.420Z,23.80
2023-05-16T20:34:14.609Z,24.00
2023-05-16T20:37:16.066Z,23.90
2023-05-16T20:40:17.862Z,24.00
2023-05-16T20:43:19.528Z,23.90
2023-05-16T20:46:21.169Z,23.90
2023-05-16T20:49:23.237Z,23.90
2023-05-16T20:52:24.719Z,23.80
2023-05-16T20:55:26.299Z,23.70
2023-05-16T20:58:27.863Z,23.80
2023-05-16T21:01:29.506Z,23.80
2023-05-16T21:04:31.594Z,23.70
2023-05-16T21:07:33.067Z,23.40
2023-05-16T21:10:34.565Z,23.80
2023-05-16T21:13:35.951Z,23.50
2023-05-16T21:16:37.368Z,23.70
2023-05-16T21:19:40.700Z,23.50
2023-05-16T21:22:42.201Z,23.40
2023-05-16T21:25:43.626Z,23.70
2023-05-16T21:28:54.424Z,23.60
2023-05-16T21:31:57.783Z,23.70
2023-05-16T21:35:00.165Z,23.60
2023-05-16T21:38:04.130Z,23.60
2023-05-16T21:41:05.910Z,23.50
2023-05-16T21:44:07.422Z,23.50
2023-05-16T21:47:08.889Z,23.60
2023-05-16T21:50:11.660Z,23.10
2023-05-16T21:53:13.051Z,23.60
2023-05-16T21:56:14.351Z,23.60
2023-05-16T21:59:16.413Z,23.50
2023-05-16T22:02:21.914Z,23.30
2023-05-16T22:05:24.537Z,23.40
2023-05-16T22:08:25.931Z,23.40
2023-05-16T22:11:27.777Z,23.50
2023-05-16T22:14:29.206Z,23.20
2023-05-16T22:17:31.034Z,23.40
2023-05-16T22:20:33.105Z,23.50
2023-05-16T22:23:35.928Z,23.20
2023-05-16T22:26:37.320Z,23.40
2023-05-16T22:29:38.622Z,23.30
2023-05-16T22:32:40.211Z,23.30
2023-05-16T22:35:42.536Z,23.50
2023-05-16T22:38:43.956Z,23.30
2023-05-16T22:41:46.094Z,23.20
2023-05-16T22:44:47.507Z,23.20
2023-05-16T22:47:48.903Z,22.90
2023-05-16T22:50:51.067Z,23.30
2023-05-16T22:53:52.492Z,23.30
2023-05-16T22:56:55.577Z,23.00
2023-05-16T22:59:56.978Z,23.10
2023-05-16T23:02:58.376Z,23.10
2023-05-16T23:06:00.419Z,22.70
2023-05-16T23:09:03.733Z,23.20
2023-05-16T23:12:05.982Z,23.20
2023-05-16T23:15:09.233Z,23.10
2023-05-16T23:18:11.094Z,23.10
2023-05-16T23:21:13.400Z,23.20
2023-05-16T23:24:16.624Z,22.80
2023-05-16T23:27:18.002Z,23.00
2023-05-16T23:30:19.259Z,23.00
2023-05-16T23:33:20.797Z,23.00
2023-05-16T23:36:22.952Z,23.00
2023-05-16T23:39:24.512Z,22.90
2023-05-16T23:42:26.089Z,23.00
2023-05-16T23:45:30.665Z,23.00
2023-05-16T23:48:32.329Z,22.40
2023-05-16T23:51:52.220Z,23.00
2023-05-16T23:54:56.168Z,23.00
2023-05-16T23:57:57.414Z,22.90
